Time;durP1;ratioP1;P1;durP2;ratioP2;P2;SDS_P1;SDS_P2;PMS_P1;PMS_P2;Temp;Humidity;BMP_temperature;BMP_pressure;BME280_temperature;BME280_humidity;BME280_pressure;Samples;Min_cycle;Max_cycle;Signal;HPM_P1;HPM_P2
2023/01/24 00:01:10;;;;;;;36.53;15.07;;;;;;;2.86;100.00;148167.88;5049173;28;20033;-67
2023/01/24 00:03:35;;;;;;;32.43;13.47;;;;;;;2.86;100.00;148167.88;5049903;28;20377;-67
2023/01/24 00:06:01;;;;;;;36.63;15.27;;;;;;;2.86;100.00;148167.88;5050621;28;20060;-67
2023/01/24 00:08:26;;;;;;;33.67;14.00;;;;;;;2.86;100.00;148167.88;5049820;28;20028;-67
2023/01/24 00:10:59;;;;;;;36.97;15.43;;;;;;;2.86;100.00;148167.88;5048953;28;20032;-67
2023/01/24 00:13:25;;;;;;;35.50;13.93;;;;;;;2.86;100.00;148167.88;5050718;28;20381;-67
2023/01/24 00:15:50;;;;;;;37.03;15.33;;;;;;;2.86;100.00;148167.88;5046548;28;20082;-67
2023/01/24 00:18:16;;;;;;;36.20;14.70;;;;;;;2.86;100.00;148167.88;5051115;28;20086;-67
2023/01/24 00:20:41;;;;;;;38.23;14.70;;;;;;;2.86;100.00;148167.88;5044007;28;20469;-68
2023/01/24 00:23:07;;;;;;;39.90;16.07;;;;;;;2.86;100.00;148167.88;5050640;28;20024;-68
2023/01/24 00:25:32;;;;;;;34.97;14.63;;;;;;;2.86;100.00;148167.88;5050599;28;20053;-67
2023/01/24 00:27:57;;;;;;;38.30;15.73;;;;;;;2.86;100.00;148167.88;5050811;28;20760;-67
2023/01/24 00:30:23;;;;;;;35.90;13.50;;;;;;;2.86;100.00;148167.88;5048973;28;20083;-67
2023/01/24 00:32:49;;;;;;;29.40;13.60;;;;;;;2.86;100.00;148167.88;5050418;28;20417;-67
2023/01/24 00:35:14;;;;;;;38.33;15.37;;;;;;;2.86;100.00;148167.88;5051411;28;20559;-67
2023/01/24 00:37:40;;;;;;;38.30;13.97;;;;;;;2.86;100.00;148167.88;5047987;28;20044;-67
2023/01/24 00:40:07;;;;;;;33.17;14.87;;;;;;;2.86;100.00;148167.88;5047504;28;20032;-67
2023/01/24 00:42:32;;;;;;;31.33;12.60;;;;;;;2.86;100.00;148167.88;5049445;28;20024;-67
2023/01/24 00:44:57;;;;;;;31.07;13.27;;;;;;;2.86;100.00;148167.88;5049659;28;20020;-67
2023/01/24 00:47:24;;;;;;;36.60;13.97;;;;;;;2.86;100.00;148167.88;5047029;28;20126;-67
2023/01/24 00:49:50;;;;;;;29.93;13.00;;;;;;;2.86;100.00;148167.88;5047433;28;20075;-67
2023/01/24 00:52:15;;;;;;;33.93;12.67;;;;;;;2.86;100.00;148167.88;5050529;28;20836;-66
2023/01/24 00:54:40;;;;;;;33.00;12.70;;;;;;;2.86;100.00;148167.88;5048268;28;20032;-66
2023/01/24 00:57:06;;;;;;;36.37;15.50;;;;;;;2.86;100.00;148167.88;5047371;28;20024;-67
2023/01/24 00:59:31;;;;;;;39.50;14.50;;;;;;;2.86;100.00;148167.88;5050744;28;20093;-66
2023/01/24 01:01:56;;;;;;;32.13;13.20;;;;;;;2.86;100.00;148167.88;5047790;28;20477;-67
2023/01/24 01:04:22;;;;;;;27.33;11.43;;;;;;;2.86;100.00;148167.88;5051503;28;20029;-67
2023/01/24 01:06:47;;;;;;;28.47;11.17;;;;;;;2.86;100.00;148167.88;5050776;28;20155;-67
2023/01/24 01:09:13;;;;;;;30.97;13.70;;;;;;;2.86;100.00;148167.88;5051610;28;20115;-67
2023/01/24 01:11:41;;;;;;;27.47;9.07;;;;;;;2.86;100.00;148167.88;5049612;28;20468;-68
2023/01/24 01:14:07;;;;;;;24.67;7.70;;;;;;;2.86;100.00;148167.88;5045620;28;21745;-67
2023/01/24 01:16:37;;;;;;;26.13;10.50;;;;;;;2.86;100.00;148167.88;5048852;28;20036;-68
2023/01/24 01:19:03;;;;;;;24.87;11.10;;;;;;;2.86;100.00;148167.88;5048262;28;20043;-68
2023/01/24 01:21:28;;;;;;;31.73;12.73;;;;;;;2.86;100.00;148167.88;5047748;28;20032;-68
2023/01/24 01:23:53;;;;;;;32.03;13.17;;;;;;;2.86;100.00;148167.88;5048861;28;20063;-69
2023/01/24 01:26:21;;;;;;;24.63;10.40;;;;;;;2.86;100.00;148167.88;5049874;28;20469;-68
2023/01/24 01:28:46;;;;;;;30.47;13.13;;;;;;;2.86;100.00;148167.88;5048289;28;20728;-68
2023/01/24 01:31:12;;;;;;;30.00;11.13;;;;;;;2.86;100.00;148167.88;5042466;28;20037;-68
2023/01/24 01:33:37;;;;;;;26.27;10.23;;;;;;;2.86;100.00;148167.88;5048325;28;20154;-68
2023/01/24 01:36:03;;;;;;;26.47;11.40;;;;;;;2.86;100.00;148167.88;5048008;28;20114;-68
2023/01/24 01:38:29;;;;;;;16.07;7.03;;;;;;;2.86;100.00;148167.88;5049421;28;20542;-67
2023/01/24 01:40:55;;;;;;;21.27;7.13;;;;;;;2.86;100.00;148167.88;5048267;28;20060;-66
2023/01/24 01:43:24;;;;;;;6.93;4.13;;;;;;;2.86;100.00;148167.88;5047746;28;20449;-68
2023/01/24 01:45:52;;;;;;;20.57;8.83;;;;;;;2.86;100.00;148167.88;5046210;28;20043;-67
2023/01/24 01:48:39;;;;;;;19.70;8.90;;;;;;;2.86;100.00;148167.88;5045137;28;20468;-67
2023/01/24 01:51:29;;;;;;;20.70;9.73;;;;;;;2.86;100.00;148167.88;5049424;28;20036;-67
2023/01/24 01:53:59;;;;;;;17.83;8.33;;;;;;;2.86;100.00;148167.88;5044859;28;20044;-66
2023/01/24 01:56:34;;;;;;;19.57;7.27;;;;;;;2.86;100.00;148167.88;5047229;28;20043;-68
2023/01/24 01:59:05;;;;;;;14.80;6.60;;;;;;;2.86;100.00;148167.88;5048855;28;20033;-67
2023/01/24 02:01:31;;;;;;;21.40;8.55;;;;;;;2.86;100.00;148167.88;5046182;28;20043;-66
2023/01/24 02:04:10;;;;;;;18.93;8.43;;;;;;;2.86;100.00;148167.88;5046021;28;20115;-66
2023/01/24 02:06:58;;;;;;;13.37;6.13;;;;;;;2.86;100.00;148167.88;5045086;28;20078;-66
2023/01/24 02:09:28;;;;;;;16.70;8.40;;;;;;;2.86;100.00;148167.88;5048264;28;20498;-67
2023/01/24 02:11:58;;;;;;;20.17;9.10;;;;;;;2.86;100.00;148167.88;5046939;28;20036;-67
2023/01/24 02:17:11;;;;;;;12.10;5.37;;;;;;;2.86;100.00;148167.88;5047032;28;20044;-66
2023/01/24 02:19:51;;;;;;;13.30;5.80;;;;;;;2.86;100.00;148167.88;5047827;28;20462;-66
2023/01/24 02:22:23;;;;;;;19.63;8.10;;;;;;;2.86;100.00;148167.88;5045026;28;20426;-67
2023/01/24 02:24:59;;;;;;;15.40;7.07;;;;;;;2.86;100.00;148167.88;5048127;28;20468;-66
2023/01/24 02:27:24;;;;;;;14.00;5.37;;;;;;;2.86;100.00;148167.88;5048273;28;20036;-67
2023/01/24 02:29:50;;;;;;;9.17;4.30;;;;;;;2.86;100.00;148167.88;5048287;28;20067;-66
2023/01/24 02:32:17;;;;;;;13.43;5.90;;;;;;;2.86;100.00;148167.88;5045892;28;20075;-67
2023/01/24 02:34:42;;;;;;;21.10;8.03;;;;;;;2.86;100.00;148167.88;5048863;28;20685;-66
2023/01/24 02:37:13;;;;;;;15.27;6.13;;;;;;;2.86;100.00;148167.88;5048900;28;20021;-67
2023/01/24 02:40:14;;;;;;;13.87;5.60;;;;;;;2.86;100.00;148167.88;5047018;28;20033;-66
2023/01/24 02:42:39;;;;;;;13.57;6.37;;;;;;;2.86;100.00;148167.88;4984811;28;20269;-66
2023/01/24 02:45:11;;;;;;;9.37;3.17;;;;;;;2.86;100.00;148167.88;4984773;28;20034;-67
2023/01/24 02:47:41;;;;;;;14.02;6.30;;;;;;;2.86;100.00;148167.88;4989101;28;20026;-66
2023/01/24 02:50:08;;;;;;;13.83;6.13;;;;;;;2.86;100.00;148167.88;4985570;28;20041;-66
2023/01/24 02:55:17;;;;;;;9.23;4.37;;;;;;;2.86;100.00;148167.88;4983757;28;20048;-66
2023/01/24 03:00:27;;;;;;;14.83;6.00;;;;;;;2.86;100.00;148167.88;4985990;28;20041;-66
2023/01/24 03:02:52;;;;;;;15.83;7.07;;;;;;;2.86;100.00;148167.88;4986933;28;20034;-66
2023/01/24 03:05:18;;;;;;;13.60;6.43;;;;;;;2.86;100.00;148167.88;4987384;28;20065;-66
2023/01/24 03:07:44;;;;;;;9.23;4.47;;;;;;;2.86;100.00;148167.88;4985877;28;20030;-67
2023/01/24 03:10:14;;;;;;;9.70;4.37;;;;;;;2.86;100.00;148167.88;4987000;28;20100;-67
2023/01/24 03:34:32;;;;;;;8.83;4.07;;;;;;;2.86;100.00;148167.88;5052574;28;20428;-67
2023/01/24 03:37:00;;;;;;;13.33;6.47;;;;;;;2.86;100.00;148167.88;5049944;28;20017;-67
2023/01/24 03:42:13;;;;;;;10.07;4.73;;;;;;;2.86;100.00;148167.88;5046009;28;20032;-68
2023/01/24 03:44:38;;;;;;;8.77;3.80;;;;;;;2.86;100.00;148167.88;5049573;28;20025;-68
2023/01/24 03:47:04;;;;;;;10.77;5.07;;;;;;;-145.18;100.00;148167.88;5049356;28;20021;-68
2023/01/24 03:52:28;;;;;;;12.87;5.30;;;;;;;2.86;100.00;148167.88;5047538;28;20447;-68
2023/01/24 03:55:01;;;;;;;9.43;4.17;;;;;;;2.86;100.00;148167.88;5049042;28;20016;-68
2023/01/24 03:57:28;;;;;;;13.00;6.40;;;;;;;2.86;100.00;148167.88;5046139;28;20534;-67
2023/01/24 03:59:53;;;;;;;10.07;4.80;;;;;;;2.86;100.00;148167.88;5045501;28;20017;-67
2023/01/24 04:02:19;;;;;;;12.60;5.70;;;;;;;2.86;100.00;148167.88;5047966;28;20021;-67
2023/01/24 04:07:35;;;;;;;10.47;5.00;;;;;;;2.86;100.00;148167.88;5050135;28;20098;-67
2023/01/24 04:10:00;;;;;;;8.10;4.07;;;;;;;2.86;100.00;148167.88;5050884;28;20025;-67
2023/01/24 04:12:26;;;;;;;13.57;6.37;;;;;;;2.86;100.00;148167.88;5050419;28;20028;-67
2023/01/24 04:14:51;;;;;;;12.63;5.37;;;;;;;2.86;100.00;148167.88;5047469;28;20032;-67
2023/01/24 04:17:16;;;;;;;10.63;5.03;;;;;;;2.86;100.00;148167.88;5047838;28;20357;-67
2023/01/24 04:19:42;;;;;;;11.27;5.20;;;;;;;2.86;100.00;148167.88;5050305;28;20025;-67
2023/01/24 04:22:07;;;;;;;12.93;5.63;;;;;;;2.86;100.00;148167.88;5052149;28;20376;-69
2023/01/24 04:24:33;;;;;;;13.37;5.63;;;;;;;2.86;100.00;148167.88;5048951;28;20040;-67
2023/01/24 04:26:58;;;;;;;9.53;4.70;;;;;;;2.86;100.00;148167.88;5051388;28;20036;-68
2023/01/24 04:29:23;;;;;;;6.57;3.83;;;;;;;2.86;100.00;148167.88;5049482;28;20460;-67
2023/01/24 04:31:58;;;;;;;13.23;7.13;;;;;;;2.86;100.00;148167.88;5046966;28;20496;-67
2023/01/24 04:34:23;;;;;;;8.90;4.10;;;;;;;2.86;100.00;148167.88;5049049;28;20052;-68
2023/01/24 04:36:49;;;;;;;9.30;3.63;;;;;;;2.86;100.00;148167.88;5050473;28;20052;-69
2023/01/24 04:39:15;;;;;;;8.03;4.13;;;;;;;2.86;100.00;148167.88;5050868;28;20029;-66
2023/01/24 04:41:40;;;;;;;7.73;3.93;;;;;;;2.86;100.00;148167.88;5051278;28;20078;-67
2023/01/24 04:44:06;;;;;;;6.73;3.33;;;;;;;2.86;100.00;148167.88;5050173;28;20024;-68
2023/01/24 04:46:31;;;;;;;11.30;4.77;;;;;;;2.86;100.00;148167.88;5049384;28;20036;-67
2023/01/24 04:48:57;;;;;;;12.63;5.50;;;;;;;2.86;100.00;148167.88;5048681;28;20055;-66
2023/01/24 04:51:22;;;;;;;11.63;5.43;;;;;;;2.86;100.00;148167.88;5050526;28;20075;-67
2023/01/24 04:53:48;;;;;;;8.90;3.77;;;;;;;2.86;100.00;148167.88;5050151;28;20108;-69
2023/01/24 04:56:13;;;;;;;7.67;3.50;;;;;;;2.86;100.00;148167.88;5048060;28;20081;-67
2023/01/24 04:58:39;;;;;;;12.50;5.60;;;;;;;2.86;100.00;148167.88;5035144;28;20028;-67
2023/01/24 05:01:05;;;;;;;11.53;5.70;;;;;;;2.86;100.00;148167.88;5047163;28;20033;-68
2023/01/24 05:03:30;;;;;;;13.30;5.63;;;;;;;-145.18;100.00;148167.88;5050161;28;20028;-67
2023/01/24 05:05:56;;;;;;;12.10;5.67;;;;;;;2.86;100.00;148167.88;5049241;28;20036;-68
2023/01/24 05:08:22;;;;;;;11.77;4.97;;;;;;;2.86;100.00;148167.88;5044309;28;20029;-68
2023/01/24 05:10:48;;;;;;;13.87;6.23;;;;;;;2.86;100.00;148167.88;5030157;28;20025;-67
2023/01/24 05:13:13;;;;;;;12.83;5.33;;;;;;;2.86;100.00;148167.88;5048859;28;20158;-68
2023/01/24 05:15:49;;;;;;;15.17;7.10;;;;;;;2.86;100.00;148167.88;5049608;28;20063;-67
2023/01/24 05:18:14;;;;;;;13.57;6.20;;;;;;;2.86;100.00;148167.88;5049718;28;20029;-67
2023/01/24 05:20:40;;;;;;;14.80;6.30;;;;;;;2.86;100.00;148167.88;5047630;28;20050;-67
2023/01/24 05:23:05;;;;;;;13.57;6.27;;;;;;;2.86;100.00;148167.88;5050506;28;20377;-67
2023/01/24 05:25:31;;;;;;;9.33;4.57;;;;;;;2.86;100.00;148167.88;5049957;28;20029;-67
2023/01/24 05:27:56;;;;;;;10.07;4.90;;;;;;;2.86;100.00;148167.88;5047574;28;20021;-67
2023/01/24 05:30:22;;;;;;;11.43;4.47;;;;;;;2.86;100.00;148167.88;5048624;28;20523;-67
2023/01/24 05:32:48;;;;;;;9.47;5.27;;;;;;;2.86;100.00;148167.88;5048681;28;20036;-68
2023/01/24 05:35:15;;;;;;;13.73;5.97;;;;;;;2.86;100.00;148167.88;5045503;28;20126;-68
2023/01/24 05:37:44;;;;;;;14.40;7.20;;;;;;;-145.18;100.00;148167.88;5048363;28;20032;-67
2023/01/24 05:40:13;;;;;;;14.67;7.90;;;;;;;-145.18;100.00;148167.88;5047472;28;20495;-65
2023/01/24 05:42:42;;;;;;;11.40;5.03;;;;;;;-145.18;100.00;148167.88;5047983;28;20024;-67
2023/01/24 05:45:08;;;;;;;13.83;7.00;;;;;;;2.86;100.00;148167.88;5045852;28;20031;-68
2023/01/24 05:47:33;;;;;;;18.10;9.00;;;;;;;2.86;100.00;148167.88;5045636;28;20031;-67
2023/01/24 05:49:59;;;;;;;14.20;7.00;;;;;;;-145.18;100.00;114074.00;5049084;28;20468;-68
2023/01/24 05:52:24;;;;;;;13.53;7.17;;;;;;;2.86;100.00;148167.88;5045296;28;20020;-68
2023/01/24 05:54:53;;;;;;;12.63;6.43;;;;;;;2.86;100.00;148167.88;5049296;28;20021;-66
2023/01/24 05:57:18;;;;;;;12.80;6.70;;;;;;;;;;5046504;28;20494;-67
2023/01/24 05:59:44;;;;;;;16.60;8.67;;;;;;;-145.18;100.00;114074.00;5049247;28;20028;-68
2023/01/24 06:02:09;;;;;;;14.63;6.90;;;;;;;2.86;100.00;148167.88;5043202;28;22128;-68
2023/01/24 06:04:35;;;;;;;7.10;3.50;;;;;;;2.86;100.00;148167.88;5054894;28;20104;-68
2023/01/24 06:07:00;;;;;;;13.93;6.30;;;;;;;2.86;100.00;148167.88;5034434;28;20032;-68
2023/01/24 06:09:26;;;;;;;11.97;4.70;;;;;;;2.86;100.00;148167.88;5046117;28;20029;-67
2023/01/24 06:11:51;;;;;;;9.73;4.63;;;;;;;2.86;100.00;148167.88;5044542;28;20025;-67
2023/01/24 06:14:17;;;;;;;13.67;6.90;;;;;;;2.86;100.00;148167.88;5046839;28;20082;-68
2023/01/24 06:16:44;;;;;;;14.43;6.33;;;;;;;2.86;100.00;148167.88;5048412;28;20153;-67
2023/01/24 06:19:11;;;;;;;9.03;4.63;;;;;;;2.86;100.00;148167.88;5047193;28;20021;-67
2023/01/24 06:21:47;;;;;;;9.83;4.70;;;;;;;2.86;100.00;148167.88;5046126;28;20036;-68
2023/01/24 06:24:17;;;;;;;15.47;7.67;;;;;;;2.86;100.00;148167.88;5047376;28;20037;-67
2023/01/24 06:26:43;;;;;;;12.43;5.63;;;;;;;2.86;100.00;148167.88;5049320;28;20082;-67
2023/01/24 06:29:13;;;;;;;13.30;6.47;;;;;;;2.86;100.00;148167.88;5049946;28;20372;-67
2023/01/24 06:32:01;;;;;;;15.13;8.10;;;;;;;2.86;100.00;148167.88;5045348;28;20028;-67
2023/01/24 06:35:03;;;;;;;15.80;7.77;;;;;;;2.86;100.00;148167.88;5044741;28;20526;-67
2023/01/24 06:37:35;;;;;;;;;;;;;;;2.86;100.00;148167.88;5046805;28;20013;-67
2023/01/24 06:40:00;;;;;;;13.83;7.33;;;;;;;2.86;100.00;148167.88;5045859;28;19913;-67
2023/01/24 06:42:26;;;;;;;13.53;6.90;;;;;;;2.86;100.00;148167.88;5049960;28;20025;-67
2023/01/24 06:44:51;;;;;;;8.90;4.70;;;;;;;2.86;100.00;148167.88;5048807;28;20379;-67
2023/01/24 06:47:17;;;;;;;15.77;7.77;;;;;;;2.86;100.00;148167.88;5046054;28;20025;-67
2023/01/24 06:49:42;;;;;;;11.53;5.90;;;;;;;2.86;100.00;148167.88;5048095;28;20029;-68
2023/01/24 06:52:08;;;;;;;13.53;6.53;;;;;;;2.86;100.00;148167.88;5049077;28;20017;-68
2023/01/24 06:54:35;;;;;;;9.23;4.17;;;;;;;2.86;100.00;148167.88;5048545;28;20028;-68
2023/01/24 06:57:02;;;;;;;14.70;5.47;;;;;;;2.86;100.00;148167.88;5040904;28;20029;-67
2023/01/24 06:59:27;;;;;;;9.30;4.10;;;;;;;;;;5042521;28;20520;-67
2023/01/24 07:01:52;;;;;;;14.73;6.33;;;;;;;2.86;100.00;148167.88;5041823;28;20034;-68
2023/01/24 07:04:18;;;;;;;13.90;7.43;;;;;;;2.86;100.00;148167.88;5049017;28;20036;-67
2023/01/24 07:06:44;;;;;;;12.20;5.53;;;;;;;-145.18;100.00;148167.88;5047141;28;20025;-67
2023/01/24 07:09:09;;;;;;;14.87;6.10;;;;;;;;;;5049225;28;20091;-66
2023/01/24 07:11:35;;;;;;;14.97;7.80;;;;;;;2.86;100.00;148167.88;5055537;28;20489;-68
2023/01/24 07:14:00;;;;;;;18.63;9.27;;;;;;;2.86;100.00;148167.88;5054046;28;20029;-69
2023/01/24 07:16:26;;;;;;;19.93;9.97;;;;;;;2.86;100.00;148167.88;5052361;28;20029;-68
2023/01/24 07:18:52;;;;;;;14.73;7.17;;;;;;;2.86;100.00;148167.88;5055393;28;20027;-67
2023/01/24 07:21:18;;;;;;;16.37;8.03;;;;;;;2.86;100.00;148167.88;5055190;28;20024;-69
2023/01/24 07:23:45;;;;;;;18.37;8.70;;;;;;;2.86;100.00;148167.88;5052527;28;20029;-69
2023/01/24 07:26:12;;;;;;;12.83;6.27;;;;;;;2.86;100.00;148167.88;5047389;28;20435;-67
2023/01/24 07:28:38;;;;;;;10.43;5.23;;;;;;;2.86;100.00;148167.88;5054868;28;20021;-68
2023/01/24 07:31:03;;;;;;;16.70;9.00;;;;;;;2.86;100.00;148167.88;5053503;28;20096;-68
2023/01/24 07:33:29;;;;;;;7.90;4.10;;;;;;;2.86;100.00;148167.88;5055068;28;20025;-68
2023/01/24 07:35:55;;;;;;;12.13;5.90;;;;;;;2.86;100.00;148167.88;5053939;28;20742;-68
2023/01/24 07:38:20;;;;;;;11.13;5.63;;;;;;;2.86;100.00;148167.88;5054802;28;20033;-68
2023/01/24 07:40:46;;;;;;;7.77;3.30;;;;;;;2.86;100.00;148167.88;5050856;28;20485;-68
2023/01/24 07:43:11;;;;;;;15.13;7.33;;;;;;;2.86;100.00;148167.88;5054464;28;20105;-67
2023/01/24 07:45:40;;;;;;;14.60;5.83;;;;;;;2.86;100.00;148167.88;5052874;28;20024;-67
2023/01/24 07:48:07;;;;;;;11.60;5.80;;;;;;;2.86;100.00;148167.88;5053169;28;20123;-67
2023/01/24 07:50:33;;;;;;;9.87;4.33;;;;;;;2.86;100.00;148167.88;5048468;28;20091;-68
2023/01/24 07:52:59;;;;;;;12.03;6.50;;;;;;;2.86;100.00;148167.88;5050788;28;20112;-68
2023/01/24 07:55:26;;;;;;;10.10;5.27;;;;;;;2.86;100.00;148167.88;5054567;28;20025;-67
2023/01/24 07:57:56;;;;;;;10.57;4.77;;;;;;;2.86;100.00;148167.88;5053964;28;20092;-69
2023/01/24 08:00:22;;;;;;;13.05;6.63;;;;;;;2.86;100.00;148167.88;5053480;28;20531;-67
2023/01/24 08:02:48;;;;;;;14.00;6.57;;;;;;;2.86;100.00;148167.88;5052311;28;20032;-68
2023/01/24 08:05:13;;;;;;;15.10;8.07;;;;;;;2.86;100.00;148167.88;5052468;28;20488;-68
2023/01/24 08:07:39;;;;;;;13.73;6.60;;;;;;;2.86;100.00;148167.88;5052511;28;20025;-68
2023/01/24 08:10:05;;;;;;;16.43;7.90;;;;;;;2.86;100.00;148167.88;5054309;28;20042;-68
2023/01/24 08:12:30;;;;;;;13.27;6.37;;;;;;;2.86;100.00;148167.88;5054416;28;20060;-68
2023/01/24 08:14:56;;;;;;;10.47;5.23;;;;;;;2.86;100.00;148167.88;5053244;28;20025;-68
2023/01/24 08:17:21;;;;;;;15.17;7.77;;;;;;;2.86;100.00;148167.88;5050166;28;20525;-68
2023/01/24 08:19:47;;;;;;;15.53;7.37;;;;;;;2.86;100.00;148167.88;5051558;28;20025;-68
2023/01/24 08:22:12;;;;;;;16.00;8.13;;;;;;;2.86;100.00;148167.88;5051133;28;20028;-68
2023/01/24 08:24:37;;;;;;;16.53;8.30;;;;;;;2.86;100.00;148167.88;5054250;28;20496;-67
2023/01/24 08:27:03;;;;;;;15.83;7.90;;;;;;;2.86;100.00;148167.88;5053838;28;20032;-67
2023/01/24 08:29:29;;;;;;;15.67;8.67;;;;;;;;;;5052801;28;20041;-68
2023/01/24 08:31:54;;;;;;;15.83;7.77;;;;;;;2.86;100.00;148167.88;5050301;28;20037;-68
2023/01/24 08:34:20;;;;;;;12.73;6.80;;;;;;;-145.18;100.00;148167.88;5051053;28;20024;-68
2023/01/24 08:36:45;;;;;;;9.20;4.73;;;;;;;2.86;100.00;148167.88;5050923;28;20070;-68
2023/01/24 08:39:11;;;;;;;7.50;3.97;;;;;;;-145.18;100.00;114074.00;5052084;28;20025;-68
2023/01/24 08:41:37;;;;;;;9.60;4.63;;;;;;;-145.18;100.00;148167.88;5052256;28;20045;-68
2023/01/24 08:44:03;;;;;;;8.87;4.23;;;;;;;2.86;100.00;148167.88;5053535;28;20084;-66
2023/01/24 08:46:32;;;;;;;18.80;5.23;;;;;;;2.86;100.00;148167.88;5050778;28;20547;-68
2023/01/24 08:48:58;;;;;;;7.97;4.20;;;;;;;2.86;100.00;148167.88;5053090;28;20432;-68
2023/01/24 08:51:24;;;;;;;14.43;7.20;;;;;;;2.86;100.00;148167.88;5053186;28;20112;-68
2023/01/24 08:53:49;;;;;;;11.90;5.47;;;;;;;2.86;100.00;148167.88;5053510;28;20112;-68
2023/01/24 08:56:15;;;;;;;13.97;6.70;;;;;;;2.86;100.00;148167.88;5052484;28;20504;-69
2023/01/24 08:58:41;;;;;;;17.07;7.53;;;;;;;2.86;100.00;148167.88;5053059;28;20100;-66
2023/01/24 09:01:07;;;;;;;14.27;7.87;;;;;;;2.86;100.00;148167.88;5050645;28;20052;-66
2023/01/24 09:03:32;;;;;;;11.50;4.73;;;;;;;2.86;100.00;148167.88;5052880;28;20032;-66
2023/01/24 09:05:58;;;;;;;16.90;9.80;;;;;;;2.86;100.00;148167.88;5053172;28;20025;-67
2023/01/24 09:08:24;;;;;;;14.93;7.17;;;;;;;2.86;100.00;148167.88;5051767;28;20819;-67
2023/01/24 09:10:49;;;;;;;14.90;6.77;;;;;;;2.86;100.00;148167.88;5052938;28;20045;-67
2023/01/24 09:13:15;;;;;;;14.97;8.47;;;;;;;2.86;100.00;148167.88;5053083;28;20487;-67
2023/01/24 09:15:41;;;;;;;15.87;8.10;;;;;;;2.86;100.00;148167.88;5050803;28;20033;-68
2023/01/24 09:18:07;;;;;;;17.43;8.03;;;;;;;2.86;100.00;148167.88;5051858;28;20086;-67
2023/01/24 09:20:32;;;;;;;14.67;8.20;;;;;;;2.86;100.00;148167.88;5031633;28;20556;-67
2023/01/24 09:22:58;;;;;;;18.80;10.33;;;;;;;2.86;100.00;148167.88;5051818;28;20025;-67
2023/01/24 09:25:23;;;;;;;9.83;4.70;;;;;;;2.86;100.00;148167.88;5052927;28;20033;-67
2023/01/24 09:27:58;;;;;;;9.93;4.97;;;;;;;2.86;100.00;148167.88;5052887;28;20491;-67
2023/01/24 09:30:23;;;;;;;8.83;4.93;;;;;;;2.86;100.00;148167.88;5051312;28;20044;-69
2023/01/24 09:32:50;;;;;;;12.73;6.43;;;;;;;2.86;100.00;148167.88;5051278;28;20033;-67
2023/01/24 09:35:15;;;;;;;9.83;4.43;;;;;;;2.86;100.00;148167.88;5052545;28;20025;-67
2023/01/24 09:37:42;;;;;;;10.20;5.20;;;;;;;2.86;100.00;148167.88;5052627;28;20098;-67
2023/01/24 09:40:35;;;;;;;7.57;3.07;;;;;;;2.86;100.00;148167.88;5051963;28;20394;-69
2023/01/24 09:43:15;;;;;;;12.63;6.53;;;;;;;2.86;100.00;148167.88;5051337;28;20056;-68
2023/01/24 09:45:55;;;;;;;10.40;5.43;;;;;;;2.86;100.00;148167.88;5046195;28;20028;-68
2023/01/24 09:48:22;;;;;;;12.23;6.23;;;;;;;2.86;100.00;148167.88;5048373;28;20083;-67
2023/01/24 09:51:01;;;;;;;8.43;4.60;;;;;;;2.86;100.00;148167.88;5048568;28;20037;-68
2023/01/24 09:53:37;;;;;;;7.87;3.67;;;;;;;2.86;100.00;148167.88;5051334;28;20032;-69
2023/01/24 09:56:11;;;;;;;7.03;3.40;;;;;;;2.86;100.00;148167.88;5052078;28;20373;-68
2023/01/24 09:58:45;;;;;;;9.53;4.87;;;;;;;2.86;100.00;148167.88;5050218;28;20099;-67
2023/01/24 10:01:13;;;;;;;11.70;6.50;;;;;;;2.86;100.00;148167.88;5050112;28;20033;-68
2023/01/24 10:03:40;;;;;;;13.57;4.37;;;;;;;2.86;100.00;148167.88;5052123;28;20476;-68
2023/01/24 10:06:26;;;;;;;6.90;3.57;;;;;;;2.86;100.00;148167.88;5051876;28;20025;-68
2023/01/24 10:09:16;;;;;;;12.00;6.60;;;;;;;2.86;100.00;148167.88;5049336;28;20464;-67
2023/01/24 10:12:05;;;;;;;13.07;5.10;;;;;;;2.86;100.00;148167.88;5034265;28;20078;-67
2023/01/24 10:14:47;;;;;;;7.83;3.33;;;;;;;2.86;100.00;148167.88;5052236;28;20498;-67
2023/01/24 10:17:12;;;;;;;;;;;;;;;;;;5043783;28;20519;-67
2023/01/24 10:20:05;;;;;;;13.02;6.10;;;;;;;2.86;100.00;148167.88;5032222;28;19913;-67
2023/01/24 10:22:52;;;;;;;13.40;6.07;;;;;;;2.86;100.00;148167.88;5035500;28;20477;-68
2023/01/24 10:25:24;;;;;;;13.77;7.00;;;;;;;2.86;100.00;148167.88;5031598;28;20037;-66
2023/01/24 10:27:55;;;;;;;7.83;4.33;;;;;;;2.86;100.00;148167.88;5032012;28;20155;-67
2023/01/24 10:30:38;;;;;;;14.67;7.07;;;;;;;2.86;100.00;148167.88;5031951;28;20522;-67
2023/01/24 10:33:16;;;;;;;10.17;4.37;;;;;;;2.86;100.00;148167.88;5050066;28;20116;-67
2023/01/24 10:35:55;;;;;;;5.80;2.87;;;;;;;2.86;100.00;148167.88;5049796;28;20120;-67
2023/01/24 10:38:25;;;;;;;9.33;4.90;;;;;;;2.86;100.00;148167.88;5051772;28;20107;-68
2023/01/24 10:40:52;;;;;;;9.67;4.60;;;;;;;2.86;100.00;148167.88;5051274;28;20071;-68
2023/01/24 10:43:17;;;;;;;10.60;4.87;;;;;;;2.86;100.00;148167.88;5051815;28;20021;-69
2023/01/24 10:45:53;;;;;;;12.67;5.57;;;;;;;2.86;100.00;148167.88;5049220;28;20096;-68
2023/01/24 10:48:30;;;;;;;8.13;3.70;;;;;;;-145.18;100.00;114074.00;5031746;28;20053;-68
2023/01/24 10:51:10;;;;;;;13.83;6.90;;;;;;;2.86;100.00;148167.88;5048099;28;20025;-68
2023/01/24 10:53:35;;;;;;;8.33;4.17;;;;;;;;;;5051651;28;20115;-68
2023/01/24 10:56:05;;;;;;;11.13;5.30;;;;;;;2.86;100.00;148167.88;5051633;28;20109;-68
2023/01/24 10:58:41;;;;;;;14.30;7.17;;;;;;;2.86;100.00;148167.88;5051219;28;20031;-68
2023/01/24 11:01:25;;;;;;;11.03;3.70;;;;;;;2.86;100.00;148167.88;5048379;28;20060;-68
2023/01/24 11:03:52;;;;;;;10.93;6.40;;;;;;;2.86;100.00;148167.88;5033130;28;20086;-67
2023/01/24 11:06:20;;;;;;;15.33;7.67;;;;;;;2.86;100.00;148167.88;5051369;28;20049;-67
2023/01/24 11:08:46;;;;;;;9.23;4.20;;;;;;;2.86;100.00;148167.88;5050829;28;20033;-67
2023/01/24 11:11:24;;;;;;;11.40;5.40;;;;;;;2.86;100.00;148167.88;5049808;28;20033;-66
2023/01/24 11:13:55;;;;;;;10.53;4.80;;;;;;;2.86;100.00;148167.88;5050569;28;20072;-68
2023/01/24 11:16:26;;;;;;;11.80;6.97;;;;;;;2.86;100.00;148167.88;5048063;28;20064;-68
2023/01/24 11:18:57;;;;;;;15.10;7.85;;;;;;;2.86;100.00;148167.88;5051504;28;20067;-67
2023/01/24 11:21:22;;;;;;;13.25;7.03;;;;;;;2.86;100.00;148167.88;5049345;28;20048;-68
2023/01/24 11:24:06;;;;;;;7.30;3.83;;;;;;;2.86;100.00;148167.88;5051133;28;20056;-68
2023/01/24 11:26:36;;;;;;;14.33;8.20;;;;;;;2.86;100.00;148167.88;5051486;28;20037;-68
2023/01/24 11:29:06;;;;;;;11.90;6.10;;;;;;;2.86;100.00;148167.88;5051657;28;20075;-68
2023/01/24 11:32:22;;;;;;;14.10;7.93;;;;;;;2.86;100.00;148167.88;5049397;28;20032;-68
2023/01/24 11:35:02;;;;;;;8.87;4.93;;;;;;;2.86;100.00;148167.88;5016603;28;20042;-68
2023/01/24 11:38:01;;;;;;;6.10;3.60;;;;;;;2.86;100.00;148167.88;5031343;28;20116;-68
2023/01/24 11:40:42;;;;;;;12.07;6.60;;;;;;;2.86;100.00;148167.88;5034627;28;20029;-68
2023/01/24 11:43:21;;;;;;;8.37;4.47;;;;;;;2.86;100.00;148167.88;5051269;28;20514;-68
2023/01/24 11:46:23;;;;;;;8.43;4.00;;;;;;;2.86;100.00;148167.88;5047608;28;20477;-69
2023/01/24 11:49:07;;;;;;;8.70;4.47;;;;;;;2.86;100.00;148167.88;5033789;28;20155;-67
2023/01/24 11:51:47;;;;;;;9.47;4.77;;;;;;;2.86;100.00;148167.88;5038366;28;20427;-67
2023/01/24 11:54:26;;;;;;;14.43;7.30;;;;;;;2.86;100.00;148167.88;5048755;28;20067;-67
2023/01/24 11:56:56;;;;;;;14.53;7.83;;;;;;;2.86;100.00;148167.88;5053875;28;20021;-68
2023/01/24 11:59:54;;;;;;;13.67;7.47;;;;;;;2.86;100.00;148167.88;5054720;28;20029;-68
2023/01/24 12:02:39;;;;;;;12.07;5.70;;;;;;;2.86;100.00;148167.88;5051909;28;20105;-68
2023/01/24 12:05:25;;;;;;;16.50;8.73;;;;;;;2.86;100.00;148167.88;5052120;28;20025;-68
2023/01/24 12:07:58;;;;;;;12.67;6.60;;;;;;;2.86;100.00;148167.88;5043063;28;20025;-68
2023/01/24 12:10:54;;;;;;;12.70;6.30;;;;;;;2.86;100.00;148167.88;5054556;28;20025;-69